Latest Weather Observations for Terrey Hills

IDN60801

Issued at 10:32 pm EDT Saturday 3 December 2016 (issued every 30 minutes, with the page automatically refreshed every 10 minutes)

About weather observations | Map of weather stations | Latest weather observations for NSW | Other Formats
Station Details ID: 066059 Name: TERREY HILLS AWS Lat: -33.69 Lon: 151.23 Height: 199.0 m
Data from the previous 72 hours. | See also: Recent months at Terrey Hills
Date/Time
EDT
Temp
°C
App
Temp
°C
Dew
Point
°C
Rel
Hum
%
Delta-T
°C
Wind Press
QNH
hPa
Press
MSL
hPa
Rain since
9am
mm
Dir  Spd
km/h
Gust
km/h
Spd
kts
Gust
kts
03/10:30pm 18.8 20.8 17.8 94 0.6 NE 4 9 2 5 - - 0.0
03/10:00pm 18.8 20.1 17.6 93 0.7 ENE 7 13 4 7 - - 0.0
03/09:30pm 18.6 20.0 17.3 92 0.8 ENE 6 11 3 6 - - 0.0
03/09:00pm 18.5 20.1 16.8 90 1.0 NE 4 9 2 5 - - 0.0
03/08:30pm 18.8 20.0 16.8 88 1.2 NE 6 9 3 5 - - 0.0
03/08:00pm 19.3 20.3 16.9 86 1.5 ENE 7 11 4 6 - - 0.0
03/07:30pm 19.7 20.0 16.9 84 1.7 E 11 17 6 9 - - 0.0
03/07:00pm 20.3 20.5 16.7 80 2.2 ENE 11 20 6 11 - - 0.0
03/06:30pm 20.8 20.9 16.6 77 2.6 ENE 11 19 6 10 - - 0.0
03/06:00pm 21.2 21.3 16.4 74 2.9 E 11 20 6 11 - - 0.0
03/05:30pm 21.8 21.6 16.7 73 3.1 E 13 20 7 11 - - 0.0
03/05:00pm 22.0 21.6 16.3 70 3.5 ESE 13 19 7 10 - - 0.0
03/04:30pm 22.3 21.7 16.6 70 3.5 E 15 24 8 13 - - 0.0
03/04:00pm 22.4 21.8 15.7 66 4.1 ESE 13 22 7 12 - - 0.0
03/03:30pm 22.5 21.5 15.6 65 4.2 E 15 24 8 13 - - 0.0
03/03:00pm 23.2 22.7 17.0 68 3.8 ESE 15 28 8 15 - - 0.0
03/02:30pm 22.3 21.6 16.3 69 3.7 ESE 15 24 8 13 - - 0.0
03/02:00pm 23.3 23.0 17.3 69 3.7 E 15 24 8 13 - - 0.0
03/01:30pm 22.3 21.6 16.3 69 3.7 E 15 24 8 13 - - 0.0
03/01:00pm 23.0 22.8 17.7 72 3.3 E 15 22 8 12 - - 0.0
03/12:30pm 22.1 21.7 17.2 74 3.0 E 15 22 8 12 - - 0.0
03/12:00pm 22.2 22.8 17.8 76 2.8 ESE 11 20 6 11 - - 0.0
03/11:30am 21.9 22.0 17.5 76 2.7 ESE 13 20 7 11 - - 0.0
03/11:00am 21.9 22.0 17.5 76 2.7 ESE 13 20 7 11 - - 0.0
03/10:30am 21.1 22.2 18.1 83 1.9 ESE 9 17 5 9 - - 0.0
03/10:00am 20.8 22.0 17.4 81 2.1 SE 7 13 4 7 - - 0.0
03/09:30am 21.6 22.9 17.6 78 2.5 SSE 7 13 4 7 - - 0.0
03/09:00am 20.8 21.3 17.4 81 2.1 SE 11 19 6 10 - - 0.0
03/08:30am 21.1 22.2 18.1 83 1.9 SSE 9 15 5 8 - - 0.0
03/08:00am 20.4 21.5 18.0 86 1.5 SSE 9 15 5 8 - - 0.0
03/07:30am 19.8 21.6 18.3 91 0.9 SE 6 9 3 5 - - 0.0
03/07:00am 19.4 21.0 18.2 93 0.7 SE 7 13 4 7 - - 0.0
03/06:30am 19.3 20.9 18.3 94 0.6 SE 7 13 4 7 - - 0.0
03/06:00am 19.3 20.9 18.3 94 0.6 SSE 7 17 4 9 - - 0.0
03/05:30am 19.3 21.1 18.3 94 0.6 SE 6 11 3 6 - - 0.0
03/05:00am 19.3 20.9 18.3 94 0.6 SSE 7 13 4 7 - - 0.0
03/04:30am 19.4 21.2 18.4 94 0.6 S 6 11 3 6 - - 0.0
03/04:00am 19.5 21.3 18.3 93 0.7 S 6 11 3 6 - - 0.0
03/03:30am 19.6 21.3 18.6 94 0.6 S 7 15 4 8 - - 0.0
03/03:00am 19.6 21.1 18.8 95 0.5 SSE 9 20 5 11 - - 0.0
03/02:30am 19.6 20.0 18.9 96 0.4 SE 15 26 8 14 - - 0.0
03/02:00am 19.8 20.2 19.1 96 0.4 SSE 15 26 8 14 - - 0.0
03/01:30am 20.0 20.5 19.3 96 0.4 SSE 15 24 8 13 - - 0.0
03/01:00am 20.2 20.8 19.4 95 0.5 SSE 15 26 8 14 - - 0.0
03/12:30am 20.3 21.3 19.5 95 0.5 S 13 28 7 15 - - 0.0
03/12:00am 20.5 20.8 19.5 94 0.6 S 17 26 9 14 - - 0.0
 
Date/Time
EDT
Temp
°C
App
Temp
°C
Dew
Point
°C
Rel
Hum
%
Delta-T
°C
Wind Press
QNH
hPa
Press
MSL
hPa
Rain since
9am
mm
Dir  Spd
km/h
Gust
km/h
Spd
kts
Gust
kts
02/11:30pm 20.8 23.0 19.6 93 0.8 S 7 17 4 9 - - 0.0
02/11:00pm 21.1 22.7 19.9 93 0.8 S 11 20 6 11 - - 0.0
02/10:30pm 21.3 22.1 19.8 91 1.0 S 15 30 8 16 - - 0.0
02/10:00pm 22.2 22.2 19.0 82 2.0 SSW 17 28 9 15 - - 0.0
02/09:30pm 25.8 23.6 9.2 35 9.1 SSW 11 19 6 10 - - 0.0
02/09:00pm 27.1 24.9 8.0 30 10.4 WNW 9 15 5 8 - - 0.0
02/08:30pm 27.1 25.3 8.0 30 10.4 WNW 7 15 4 8 - - 0.0
02/08:00pm 27.8 25.9 7.6 28 10.9 NW 7 13 4 7 - - 0.0
02/07:30pm 28.8 25.7 7.4 26 11.6 WNW 13 22 7 12 - - 0.0
02/07:00pm 28.9 27.0 7.5 26 11.6 WNW 7 15 4 8 - - 0.0
02/06:30pm 29.4 27.1 7.3 25 12.0 WNW 9 28 5 15 - - 0.0
02/06:00pm 29.0 28.0 8.7 28 11.3 WNW 4 7 2 4 - - 0.0
02/05:30pm 28.4 26.7 7.6 27 11.3 NW 6 11 3 6 - - 0.0
02/05:00pm 27.2 25.1 6.6 27 10.9 ESE 7 11 4 6 - - 0.0
02/04:30pm 28.9 26.9 6.9 25 11.8 E 7 9 4 5 - - 0.0
02/04:00pm 29.5 26.8 5.6 22 12.6 E 9 17 5 9 - - 0.0
02/03:30pm 30.5 28.1 7.0 23 12.8 NE 9 19 5 10 - - 0.0
02/03:00pm 30.1 27.1 6.1 22 12.8 ESE 11 22 6 12 - - 0.0
02/02:30pm 32.4 29.1 6.6 20 14.1 ENE 13 20 7 11 - - 0.0
02/02:00pm 32.4 30.0 5.1 18 14.5 NE 7 17 4 9 - - 0.0
02/01:30pm 32.9 30.6 5.5 18 14.7 E 7 13 4 7 - - 0.0
02/01:00pm 32.9 29.1 3.8 16 15.2 WSW 13 24 7 13 - - 0.0
02/12:30pm 32.7 30.2 4.5 17 14.9 WSW 7 20 4 11 - - 0.0
02/12:00pm 32.4 29.3 3.4 16 15.0 WNW 9 17 5 9 - - 0.0
02/11:30am 31.4 28.5 2.6 16 14.6 WSW 7 13 4 7 - - 0.0
02/11:00am 31.4 28.0 1.7 15 14.9 W 9 19 5 10 - - 0.0
02/10:30am 31.0 27.5 1.4 15 14.7 WSW 9 13 5 7 - - 0.0
02/10:00am 30.3 28.0 4.9 20 13.3 W 6 11 3 6 - - 0.0
02/09:30am 28.9 28.0 10.6 32 10.5 W 6 11 3 6 - - 0.0
02/09:00am 26.7 25.4 11.2 38 8.9 WNW 9 13 5 7 - - 0.2
02/08:30am 24.8 24.3 12.7 47 7.0 W 7 11 4 6 - - 0.2
02/08:00am 23.0 22.6 12.9 53 5.8 W 7 9 4 5 - - 0.2
02/07:30am 21.3 20.8 12.7 58 4.9 W 7 11 4 6 - - 0.2
02/07:00am 19.7 18.9 12.9 65 3.9 W 9 13 5 7 - - 0.2
02/06:30am 19.1 18.3 12.8 67 3.6 W 9 13 5 7 - - 0.2
02/06:00am 18.0 17.6 12.9 72 2.9 WNW 7 9 4 5 - - 0.2
02/05:30am 18.2 17.7 12.6 70 3.2 W 7 9 4 5 - - 0.2
02/05:00am 19.0 19.1 11.6 62 4.1 W 2 6 1 3 - - 0.2
02/04:30am 20.1 20.6 11.6 58 4.7 CALM 0 0 0 0 - - 0.2
02/04:00am 20.6 21.1 11.5 56 5.1 CALM 0 0 0 0 - - 0.2
02/03:30am 20.6 21.0 11.2 55 5.2 CALM 0 0 0 0 - - 0.2
02/03:00am 21.0 21.0 11.1 53 5.5 ENE 2 4 1 2 - - 0.2
02/02:30am 21.1 20.3 11.2 53 5.5 WNW 6 7 3 4 - - 0.2
02/02:00am 21.6 20.6 11.0 51 5.9 NW 7 13 4 7 - - 0.2
02/01:30am 21.7 20.7 11.1 51 5.9 NW 7 13 4 7 - - 0.2
02/01:00am 21.3 20.3 11.1 52 5.7 NW 7 11 4 6 - - 0.2
02/12:30am 21.7 20.7 11.1 51 5.9 WNW 7 9 4 5 - - 0.2
02/12:00am 22.3 21.2 10.8 48 6.4 NW 7 13 4 7 - - 0.2
 
Date/Time
EDT
Temp
°C
App
Temp
°C
Dew
Point
°C
Rel
Hum
%
Delta-T
°C
Wind Press
QNH
hPa
Press
MSL
hPa
Rain since
9am
mm
Dir  Spd
km/h
Gust
km/h
Spd
kts
Gust
kts
01/11:30pm 22.6 21.2 11.0 48 6.5 NW 9 13 5 7 - - 0.2
01/11:00pm 23.0 21.8 11.7 49 6.4 NW 9 15 5 8 - - 0.2
01/10:30pm 23.4 22.3 12.1 49 6.5 NNW 9 15 5 8 - - 0.2
01/10:00pm 24.2 23.1 11.9 46 7.0 N 9 17 5 9 - - 0.2
01/09:30pm 24.4 22.8 11.7 45 7.3 N 11 15 6 8 - - 0.2
01/09:00pm 24.6 22.9 11.2 43 7.6 N 11 15 6 8 - - 0.2
01/08:30pm 24.4 22.6 11.0 43 7.6 NNE 11 20 6 11 - - 0.2
01/08:00pm 24.4 23.1 11.4 44 7.4 NNE 9 15 5 8 - - 0.2
01/07:30pm 25.0 23.7 10.1 39 8.3 NE 7 11 4 6 - - 0.2
01/07:00pm 26.3 24.1 7.8 31 10.0 NNE 9 17 5 9 - - 0.2
01/06:30pm 26.6 23.8 7.1 29 10.4 NE 11 22 6 12 - - 0.2
01/06:00pm 26.6 24.9 9.9 35 9.3 NE 9 19 5 10 - - 0.2
01/05:30pm 27.1 25.7 10.8 36 9.3 NE 9 20 5 11 - - 0.2
01/05:00pm 27.2 24.9 11.7 38 9.0 ENE 15 28 8 15 - - 0.2
01/04:30pm 28.1 26.5 11.6 36 9.6 ENE 11 20 6 11 - - 0.2
01/04:00pm 26.1 24.5 12.9 44 7.8 ENE 13 24 7 13 - - 0.2
01/03:30pm 25.1 23.9 13.9 49 6.7 NE 13 20 7 11 - - 0.2
01/03:00pm 28.4 27.3 13.1 39 9.1 NNE 11 24 6 13 - - 0.2
01/02:30pm 27.2 25.6 12.8 41 8.5 NNE 13 24 7 13 - - 0.2
01/02:00pm 27.6 25.5 14.6 45 7.9 ENE 19 28 10 15 - - 0.2
01/01:30pm 27.3 26.2 14.3 45 7.8 ENE 13 17 7 9 - - 0.2
01/01:00pm 27.6 26.9 15.3 47 7.5 ENE 13 22 7 12 - - 0.2
01/12:30pm 26.8 26.4 15.2 49 7.1 E 11 19 6 10 - - 0.2
01/12:00pm 26.6 26.5 15.9 51 6.6 ESE 11 19 6 10 - - 0.2
01/11:30am 27.7 28.2 15.0 45 7.8 W 6 11 3 6 - - 0.2
01/11:00am 26.3 26.4 12.7 43 8.0 NW 4 9 2 5 - - 0.2
01/10:30am 25.7 25.5 13.5 46 7.2 W 7 11 4 6 - - 0.2
01/10:00am 24.9 25.3 14.7 53 6.1 NW 6 13 3 7 - - 0.2
01/09:30am 21.9 22.8 16.6 72 3.2 WNW 7 11 4 6 - - 0.0
01/09:00am 19.6 20.3 16.1 80 2.1 NW 7 13 4 7 - - 0.2
01/08:30am 19.0 20.1 17.0 88 1.2 NNW 7 11 4 6 - - 0.2
01/08:00am 18.2 18.5 16.9 92 0.8 N 11 20 6 11 - - 0.2
01/07:30am 18.4 19.0 16.7 90 1.0 N 9 17 5 9 - - 0.2
01/07:00am 18.1 19.1 16.8 92 0.8 NNE 7 15 4 8 - - 0.2
01/06:30am 17.5 18.7 16.9 96 0.4 NNE 6 9 3 5 - - 0.2
01/06:00am 17.1 19.0 16.8 98 0.2 N 2 6 1 3 - - 0.2
01/05:30am 16.4 17.7 16.1 98 0.2 NW 4 6 2 3 - - 0.2
01/05:00am 16.5 17.5 16.3 99 0.1 WNW 6 9 3 5 - - 0.2
01/04:30am 16.6 17.7 16.6 100 0.0 NW 6 7 3 4 - - 0.2
01/04:00am 17.3 18.5 17.3 100 0.0 NNW 7 11 4 6 - - 0.2
01/03:30am 17.4 18.6 17.4 100 0.0 NNW 7 13 4 7 - - 0.2
01/03:00am 17.3 18.8 16.7 96 0.4 NNW 4 7 2 4 - - 0.2
01/02:30am 17.7 18.6 16.7 94 0.6 N 7 9 4 5 - - 0.2
01/02:00am 18.0 19.1 17.0 94 0.6 N 7 9 4 5 - - 0.2
01/01:30am 16.9 19.2 16.7 99 0.1 CALM 0 4 0 2 - - 0.2
01/01:00am 17.1 19.2 17.1 100 0.0 WNW 2 4 1 2 - - 0.2
01/12:30am 17.5 19.6 17.2 98 0.2 WSW 2 4 1 2 - - 0.2
01/12:00am 18.1 19.7 17.8 98 0.2 SSW 6 7 3 4 - - 0.2
 
Date/Time
EDT
Temp
°C
App
Temp
°C
Dew
Point
°C
Rel
Hum
%
Delta-T
°C
Wind Press
QNH
hPa
Press
MSL
hPa
Rain since
9am
mm
Dir  Spd
km/h
Gust
km/h
Spd
kts
Gust
kts
30/11:30pm 18.5 20.0 18.0 97 0.3 NW 7 17 4 9 - - 0.2
30/11:00pm 18.8 20.6 18.3 97 0.3 NW 6 13 3 7 - - 0.2

Other Formats:

Comma delimited format used in spreadsheet applications
http://www.bom.gov.au/fwo/IDN60801/IDN60801.94759.axf

JavaScript Object Notation format (JSON) in row-major order
http://www.bom.gov.au/fwo/IDN60801/IDN60801.94759.json